sensor_id;sensor_type;location;lat;lon;timestamp;P1;durP1;ratioP1;P2;durP2;ratioP2
47225;SDS011;32965;64.142;-21.912;2022-11-15T00:01:49;7.22;;;2.50;;
47225;SDS011;32965;64.142;-21.912;2022-11-15T00:04:14;6.40;;;3.45;;
47225;SDS011;32965;64.142;-21.912;2022-11-15T00:06:41;5.80;;;2.78;;
47225;SDS011;32965;64.142;-21.912;2022-11-15T00:09:06;5.57;;;2.40;;
47225;SDS011;32965;64.142;-21.912;2022-11-15T00:11:32;7.32;;;3.00;;
47225;SDS011;32965;64.142;-21.912;2022-11-15T00:13:58;7.43;;;3.47;;
47225;SDS011;32965;64.142;-21.912;2022-11-15T00:16:24;6.53;;;3.17;;
47225;SDS011;32965;64.142;-21.912;2022-11-15T00:18:50;5.72;;;2.75;;
47225;SDS011;32965;64.142;-21.912;2022-11-15T00:21:16;6.50;;;2.92;;
47225;SDS011;32965;64.142;-21.912;2022-11-15T00:23:42;6.90;;;2.83;;
47225;SDS011;32965;64.142;-21.912;2022-11-15T00:26:12;5.25;;;2.20;;
47225;SDS011;32965;64.142;-21.912;2022-11-15T00:28:39;3.78;;;2.13;;
47225;SDS011;32965;64.142;-21.912;2022-11-15T00:31:07;5.57;;;1.83;;
47225;SDS011;32965;64.142;-21.912;2022-11-15T00:33:34;5.20;;;2.35;;
47225;SDS011;32965;64.142;-21.912;2022-11-15T00:36:00;4.72;;;1.85;;
47225;SDS011;32965;64.142;-21.912;2022-11-15T00:38:32;3.30;;;1.67;;
47225;SDS011;32965;64.142;-21.912;2022-11-15T00:40:59;5.75;;;2.45;;
47225;SDS011;32965;64.142;-21.912;2022-11-15T00:43:25;5.03;;;2.40;;
47225;SDS011;32965;64.142;-21.912;2022-11-15T00:45:51;9.25;;;2.47;;
47225;SDS011;32965;64.142;-21.912;2022-11-15T00:48:17;4.82;;;1.95;;
47225;SDS011;32965;64.142;-21.912;2022-11-15T00:50:43;5.70;;;2.10;;
47225;SDS011;32965;64.142;-21.912;2022-11-15T00:53:08;4.88;;;1.98;;
47225;SDS011;32965;64.142;-21.912;2022-11-15T00:55:34;3.08;;;1.58;;
47225;SDS011;32965;64.142;-21.912;2022-11-15T00:58:00;5.70;;;2.72;;
47225;SDS011;32965;64.142;-21.912;2022-11-15T01:00:26;4.57;;;2.08;;
47225;SDS011;32965;64.142;-21.912;2022-11-15T01:02:51;6.35;;;2.20;;
47225;SDS011;32965;64.142;-21.912;2022-11-15T01:05:17;3.75;;;1.50;;
47225;SDS011;32965;64.142;-21.912;2022-11-15T01:07:43;5.38;;;2.28;;
47225;SDS011;32965;64.142;-21.912;2022-11-15T01:10:09;5.40;;;1.95;;
47225;SDS011;32965;64.142;-21.912;2022-11-15T01:12:34;4.03;;;1.65;;
47225;SDS011;32965;64.142;-21.912;2022-11-15T01:15:00;3.15;;;1.63;;
47225;SDS011;32965;64.142;-21.912;2022-11-15T01:17:26;6.22;;;2.03;;
47225;SDS011;32965;64.142;-21.912;2022-11-15T01:19:52;3.67;;;1.60;;
47225;SDS011;32965;64.142;-21.912;2022-11-15T01:22:18;3.10;;;1.20;;
47225;SDS011;32965;64.142;-21.912;2022-11-15T01:24:44;3.55;;;1.67;;
47225;SDS011;32965;64.142;-21.912;2022-11-15T01:27:09;2.78;;;1.38;;
47225;SDS011;32965;64.142;-21.912;2022-11-15T01:29:35;1.80;;;0.90;;
47225;SDS011;32965;64.142;-21.912;2022-11-15T01:32:01;3.30;;;1.70;;
47225;SDS011;32965;64.142;-21.912;2022-11-15T01:34:27;3.13;;;1.40;;
47225;SDS011;32965;64.142;-21.912;2022-11-15T01:36:53;4.30;;;1.25;;
47225;SDS011;32965;64.142;-21.912;2022-11-15T01:39:18;2.13;;;0.98;;
47225;SDS011;32965;64.142;-21.912;2022-11-15T01:41:44;2.63;;;1.50;;
47225;SDS011;32965;64.142;-21.912;2022-11-15T01:47:01;3.47;;;1.20;;
47225;SDS011;32965;64.142;-21.912;2022-11-15T01:49:30;2.15;;;0.90;;
47225;SDS011;32965;64.142;-21.912;2022-11-15T01:51:58;4.25;;;1.58;;
47225;SDS011;32965;64.142;-21.912;2022-11-15T01:54:26;3.00;;;1.25;;
47225;SDS011;32965;64.142;-21.912;2022-11-15T01:56:55;4.35;;;1.30;;
47225;SDS011;32965;64.142;-21.912;2022-11-15T01:59:24;3.25;;;0.98;;
47225;SDS011;32965;64.142;-21.912;2022-11-15T02:01:51;3.88;;;1.02;;
47225;SDS011;32965;64.142;-21.912;2022-11-15T02:04:22;1.50;;;0.90;;
47225;SDS011;32965;64.142;-21.912;2022-11-15T02:07:02;2.20;;;0.90;;
47225;SDS011;32965;64.142;-21.912;2022-11-15T02:09:29;3.40;;;1.15;;
47225;SDS011;32965;64.142;-21.912;2022-11-15T02:11:55;2.58;;;0.93;;
47225;SDS011;32965;64.142;-21.912;2022-11-15T02:14:21;3.75;;;1.10;;
47225;SDS011;32965;64.142;-21.912;2022-11-15T02:25:37;3.63;;;1.00;;
47225;SDS011;32965;64.142;-21.912;2022-11-15T02:31:20;4.93;;;0.90;;
47225;SDS011;32965;64.142;-21.912;2022-11-15T02:34:32;1.85;;;0.75;;
47225;SDS011;32965;64.142;-21.912;2022-11-15T02:40:06;1.23;;;1.05;;
47225;SDS011;32965;64.142;-21.912;2022-11-15T02:42:36;4.60;;;0.77;;
47225;SDS011;32965;64.142;-21.912;2022-11-15T02:45:33;1.63;;;0.82;;
47225;SDS011;32965;64.142;-21.912;2022-11-15T02:48:04;2.67;;;0.80;;
47225;SDS011;32965;64.142;-21.912;2022-11-15T02:50:32;1.90;;;0.68;;
47225;SDS011;32965;64.142;-21.912;2022-11-15T02:52:58;2.53;;;0.63;;
47225;SDS011;32965;64.142;-21.912;2022-11-15T02:58:08;2.55;;;0.85;;
47225;SDS011;32965;64.142;-21.912;2022-11-15T03:00:47;1.48;;;0.77;;
47225;SDS011;32965;64.142;-21.912;2022-11-15T03:06:47;3.97;;;0.73;;
47225;SDS011;32965;64.142;-21.912;2022-11-15T03:12:11;1.23;;;0.70;;
47225;SDS011;32965;64.142;-21.912;2022-11-15T03:15:00;2.55;;;0.70;;
47225;SDS011;32965;64.142;-21.912;2022-11-15T03:17:35;1.98;;;0.85;;
47225;SDS011;32965;64.142;-21.912;2022-11-15T03:20:11;1.83;;;0.75;;
47225;SDS011;32965;64.142;-21.912;2022-11-15T03:22:40;1.73;;;0.55;;
47225;SDS011;32965;64.142;-21.912;2022-11-15T03:25:09;1.38;;;0.60;;
47225;SDS011;32965;64.142;-21.912;2022-11-15T03:27:39;2.90;;;0.60;;
47225;SDS011;32965;64.142;-21.912;2022-11-15T03:30:09;4.45;;;1.05;;
47225;SDS011;32965;64.142;-21.912;2022-11-15T03:32:55;3.55;;;0.77;;
47225;SDS011;32965;64.142;-21.912;2022-11-15T03:35:23;1.08;;;0.50;;
47225;SDS011;32965;64.142;-21.912;2022-11-15T03:40:25;2.67;;;0.70;;
47225;SDS011;32965;64.142;-21.912;2022-11-15T03:43:09;1.60;;;0.43;;
47225;SDS011;32965;64.142;-21.912;2022-11-15T03:45:41;3.20;;;0.50;;
47225;SDS011;32965;64.142;-21.912;2022-11-15T03:48:15;1.83;;;0.60;;
47225;SDS011;32965;64.142;-21.912;2022-11-15T03:50:46;2.20;;;0.70;;
47225;SDS011;32965;64.142;-21.912;2022-11-15T03:53:13;1.55;;;0.68;;
47225;SDS011;32965;64.142;-21.912;2022-11-15T03:55:39;0.50;;;0.40;;
47225;SDS011;32965;64.142;-21.912;2022-11-15T03:58:05;1.83;;;0.32;;
47225;SDS011;32965;64.142;-21.912;2022-11-15T04:00:31;1.75;;;0.65;;
47225;SDS011;32965;64.142;-21.912;2022-11-15T04:02:57;2.38;;;0.60;;
47225;SDS011;32965;64.142;-21.912;2022-11-15T04:05:23;1.77;;;0.28;;
47225;SDS011;32965;64.142;-21.912;2022-11-15T04:07:49;3.88;;;0.65;;
47225;SDS011;32965;64.142;-21.912;2022-11-15T04:10:14;0.52;;;0.30;;
47225;SDS011;32965;64.142;-21.912;2022-11-15T04:12:44;1.73;;;0.80;;
47225;SDS011;32965;64.142;-21.912;2022-11-15T04:15:16;2.03;;;0.57;;
47225;SDS011;32965;64.142;-21.912;2022-11-15T04:17:44;0.98;;;0.30;;
47225;SDS011;32965;64.142;-21.912;2022-11-15T04:20:25;0.65;;;0.40;;
47225;SDS011;32965;64.142;-21.912;2022-11-15T04:23:14;2.78;;;0.45;;
47225;SDS011;32965;64.142;-21.912;2022-11-15T04:26:10;1.55;;;0.32;;
47225;SDS011;32965;64.142;-21.912;2022-11-15T04:28:37;1.23;;;0.45;;
47225;SDS011;32965;64.142;-21.912;2022-11-15T04:31:23;1.05;;;0.30;;
47225;SDS011;32965;64.142;-21.912;2022-11-15T04:33:49;1.60;;;0.40;;
47225;SDS011;32965;64.142;-21.912;2022-11-15T04:36:15;1.02;;;0.55;;
47225;SDS011;32965;64.142;-21.912;2022-11-15T04:38:59;1.50;;;0.47;;
47225;SDS011;32965;64.142;-21.912;2022-11-15T04:41:24;2.85;;;0.70;;
47225;SDS011;32965;64.142;-21.912;2022-11-15T04:43:50;2.35;;;0.80;;
47225;SDS011;32965;64.142;-21.912;2022-11-15T04:46:16;1.25;;;0.60;;
47225;SDS011;32965;64.142;-21.912;2022-11-15T04:48:42;1.13;;;0.50;;
47225;SDS011;32965;64.142;-21.912;2022-11-15T04:51:08;1.25;;;0.30;;
47225;SDS011;32965;64.142;-21.912;2022-11-15T04:53:34;3.40;;;0.35;;
47225;SDS011;32965;64.142;-21.912;2022-11-15T04:55:59;2.60;;;0.32;;
47225;SDS011;32965;64.142;-21.912;2022-11-15T04:58:25;1.15;;;0.30;;
47225;SDS011;32965;64.142;-21.912;2022-11-15T05:00:51;1.52;;;0.32;;
47225;SDS011;32965;64.142;-21.912;2022-11-15T05:03:16;1.00;;;0.25;;
47225;SDS011;32965;64.142;-21.912;2022-11-15T05:06:00;1.33;;;0.22;;
47225;SDS011;32965;64.142;-21.912;2022-11-15T05:08:27;3.70;;;0.52;;
47225;SDS011;32965;64.142;-21.912;2022-11-15T05:10:52;1.63;;;0.30;;
47225;SDS011;32965;64.142;-21.912;2022-11-15T05:13:18;3.40;;;0.40;;
47225;SDS011;32965;64.142;-21.912;2022-11-15T05:15:44;1.67;;;0.50;;
47225;SDS011;32965;64.142;-21.912;2022-11-15T05:18:10;0.50;;;0.30;;
47225;SDS011;32965;64.142;-21.912;2022-11-15T05:20:35;0.90;;;0.20;;
47225;SDS011;32965;64.142;-21.912;2022-11-15T05:23:01;2.55;;;0.40;;
47225;SDS011;32965;64.142;-21.912;2022-11-15T05:25:27;0.52;;;0.20;;
47225;SDS011;32965;64.142;-21.912;2022-11-15T05:27:52;0.85;;;0.20;;
47225;SDS011;32965;64.142;-21.912;2022-11-15T05:30:18;1.45;;;0.28;;
47225;SDS011;32965;64.142;-21.912;2022-11-15T05:32:44;1.08;;;0.20;;
47225;SDS011;32965;64.142;-21.912;2022-11-15T05:35:12;2.53;;;0.10;;
47225;SDS011;32965;64.142;-21.912;2022-11-15T05:37:54;2.20;;;0.30;;
47225;SDS011;32965;64.142;-21.912;2022-11-15T05:40:19;0.85;;;0.10;;
47225;SDS011;32965;64.142;-21.912;2022-11-15T05:42:45;0.70;;;0.10;;
47225;SDS011;32965;64.142;-21.912;2022-11-15T05:45:12;2.05;;;0.40;;
47225;SDS011;32965;64.142;-21.912;2022-11-15T05:47:38;0.82;;;0.20;;
47225;SDS011;32965;64.142;-21.912;2022-11-15T05:50:04;0.68;;;0.35;;
47225;SDS011;32965;64.142;-21.912;2022-11-15T05:52:32;0.63;;;0.17;;
47225;SDS011;32965;64.142;-21.912;2022-11-15T05:55:02;0.40;;;0.10;;
47225;SDS011;32965;64.142;-21.912;2022-11-15T05:57:30;0.20;;;0.10;;
47225;SDS011;32965;64.142;-21.912;2022-11-15T05:59:55;1.48;;;0.20;;
47225;SDS011;32965;64.142;-21.912;2022-11-15T06:02:21;1.55;;;0.30;;
47225;SDS011;32965;64.142;-21.912;2022-11-15T06:04:47;0.55;;;0.28;;
47225;SDS011;32965;64.142;-21.912;2022-11-15T06:07:12;0.52;;;0.15;;
47225;SDS011;32965;64.142;-21.912;2022-11-15T06:09:38;0.50;;;0.20;;
47225;SDS011;32965;64.142;-21.912;2022-11-15T06:12:04;0.13;;;0.10;;
47225;SDS011;32965;64.142;-21.912;2022-11-15T06:14:30;0.80;;;0.30;;
47225;SDS011;32965;64.142;-21.912;2022-11-15T06:16:56;1.38;;;0.20;;
47225;SDS011;32965;64.142;-21.912;2022-11-15T06:19:21;2.42;;;0.32;;
47225;SDS011;32965;64.142;-21.912;2022-11-15T06:21:47;1.08;;;0.30;;
47225;SDS011;32965;64.142;-21.912;2022-11-15T06:24:13;1.20;;;0.13;;
47225;SDS011;32965;64.142;-21.912;2022-11-15T06:26:38;1.20;;;0.20;;
47225;SDS011;32965;64.142;-21.912;2022-11-15T06:29:04;1.80;;;0.20;;
47225;SDS011;32965;64.142;-21.912;2022-11-15T06:31:30;0.57;;;0.35;;
47225;SDS011;32965;64.142;-21.912;2022-11-15T06:33:56;2.65;;;0.20;;
47225;SDS011;32965;64.142;-21.912;2022-11-15T06:36:21;1.20;;;0.20;;
47225;SDS011;32965;64.142;-21.912;2022-11-15T06:38:48;1.10;;;0.50;;
47225;SDS011;32965;64.142;-21.912;2022-11-15T06:41:13;0.88;;;0.35;;
47225;SDS011;32965;64.142;-21.912;2022-11-15T06:43:40;1.23;;;0.25;;
47225;SDS011;32965;64.142;-21.912;2022-11-15T06:46:06;1.85;;;0.20;;
47225;SDS011;32965;64.142;-21.912;2022-11-15T06:48:32;0.95;;;0.30;;
47225;SDS011;32965;64.142;-21.912;2022-11-15T06:50:59;1.77;;;0.32;;
47225;SDS011;32965;64.142;-21.912;2022-11-15T06:53:26;0.35;;;0.20;;
47225;SDS011;32965;64.142;-21.912;2022-11-15T06:55:53;1.20;;;0.30;;
47225;SDS011;32965;64.142;-21.912;2022-11-15T06:58:22;1.45;;;0.47;;
47225;SDS011;32965;64.142;-21.912;2022-11-15T07:00:48;1.40;;;0.10;;
47225;SDS011;32965;64.142;-21.912;2022-11-15T07:03:14;2.58;;;0.38;;
47225;SDS011;32965;64.142;-21.912;2022-11-15T07:05:40;2.13;;;0.30;;
47225;SDS011;32965;64.142;-21.912;2022-11-15T07:08:05;0.98;;;0.28;;
47225;SDS011;32965;64.142;-21.912;2022-11-15T07:10:31;1.75;;;0.30;;
47225;SDS011;32965;64.142;-21.912;2022-11-15T07:12:57;1.48;;;0.30;;
47225;SDS011;32965;64.142;-21.912;2022-11-15T07:15:23;1.85;;;0.32;;
47225;SDS011;32965;64.142;-21.912;2022-11-15T07:17:50;1.17;;;0.20;;
47225;SDS011;32965;64.142;-21.912;2022-11-15T07:20:16;1.35;;;0.50;;
47225;SDS011;32965;64.142;-21.912;2022-11-15T07:22:43;1.60;;;0.30;;
47225;SDS011;32965;64.142;-21.912;2022-11-15T07:25:12;1.92;;;0.88;;
47225;SDS011;32965;64.142;-21.912;2022-11-15T07:27:38;2.17;;;0.52;;
47225;SDS011;32965;64.142;-21.912;2022-11-15T07:30:04;1.60;;;0.40;;
47225;SDS011;32965;64.142;-21.912;2022-11-15T07:32:30;1.13;;;0.30;;
47225;SDS011;32965;64.142;-21.912;2022-11-15T07:34:56;0.85;;;0.50;;
47225;SDS011;32965;64.142;-21.912;2022-11-15T07:37:22;1.90;;;0.50;;
47225;SDS011;32965;64.142;-21.912;2022-11-15T07:39:47;1.42;;;0.52;;
47225;SDS011;32965;64.142;-21.912;2022-11-15T07:42:13;1.55;;;0.40;;
47225;SDS011;32965;64.142;-21.912;2022-11-15T07:44:57;1.95;;;0.82;;
47225;SDS011;32965;64.142;-21.912;2022-11-15T07:47:23;1.67;;;0.65;;
47225;SDS011;32965;64.142;-21.912;2022-11-15T07:49:49;3.70;;;0.93;;
47225;SDS011;32965;64.142;-21.912;2022-11-15T07:52:14;1.75;;;0.75;;
47225;SDS011;32965;64.142;-21.912;2022-11-15T07:54:40;1.95;;;0.68;;
47225;SDS011;32965;64.142;-21.912;2022-11-15T07:57:06;1.50;;;0.47;;
47225;SDS011;32965;64.142;-21.912;2022-11-15T07:59:34;3.95;;;0.70;;
47225;SDS011;32965;64.142;-21.912;2022-11-15T08:02:00;1.98;;;0.63;;
47225;SDS011;32965;64.142;-21.912;2022-11-15T08:04:25;3.78;;;0.65;;
47225;SDS011;32965;64.142;-21.912;2022-11-15T08:06:51;3.60;;;1.08;;
47225;SDS011;32965;64.142;-21.912;2022-11-15T08:09:17;2.17;;;1.00;;
47225;SDS011;32965;64.142;-21.912;2022-11-15T08:11:43;5.65;;;0.93;;
47225;SDS011;32965;64.142;-21.912;2022-11-15T08:14:08;3.42;;;1.15;;
47225;SDS011;32965;64.142;-21.912;2022-11-15T08:16:34;4.00;;;0.95;;
47225;SDS011;32965;64.142;-21.912;2022-11-15T08:19:00;4.30;;;0.75;;
47225;SDS011;32965;64.142;-21.912;2022-11-15T08:21:25;2.47;;;0.57;;
47225;SDS011;32965;64.142;-21.912;2022-11-15T08:23:51;2.35;;;0.80;;
47225;SDS011;32965;64.142;-21.912;2022-11-15T08:26:17;3.13;;;0.85;;
47225;SDS011;32965;64.142;-21.912;2022-11-15T08:28:43;3.78;;;0.90;;
47225;SDS011;32965;64.142;-21.912;2022-11-15T08:31:15;4.70;;;0.90;;
47225;SDS011;32965;64.142;-21.912;2022-11-15T08:33:43;3.83;;;0.95;;
47225;SDS011;32965;64.142;-21.912;2022-11-15T08:36:12;2.63;;;1.00;;
47225;SDS011;32965;64.142;-21.912;2022-11-15T08:38:39;1.63;;;0.80;;
47225;SDS011;32965;64.142;-21.912;2022-11-15T08:41:05;4.65;;;0.82;;
47225;SDS011;32965;64.142;-21.912;2022-11-15T08:43:31;5.00;;;1.13;;
47225;SDS011;32965;64.142;-21.912;2022-11-15T08:45:58;3.60;;;1.02;;
47225;SDS011;32965;64.142;-21.912;2022-11-15T08:48:24;2.97;;;1.20;;
47225;SDS011;32965;64.142;-21.912;2022-11-15T08:50:53;2.90;;;0.90;;
47225;SDS011;32965;64.142;-21.912;2022-11-15T08:53:20;2.92;;;0.80;;
47225;SDS011;32965;64.142;-21.912;2022-11-15T08:55:46;2.55;;;1.00;;
47225;SDS011;32965;64.142;-21.912;2022-11-15T08:58:11;1.27;;;0.52;;
47225;SDS011;32965;64.142;-21.912;2022-11-15T09:00:37;4.43;;;1.23;;
47225;SDS011;32965;64.142;-21.912;2022-11-15T09:03:03;3.45;;;0.98;;
47225;SDS011;32965;64.142;-21.912;2022-11-15T09:05:30;2.83;;;0.73;;
47225;SDS011;32965;64.142;-21.912;2022-11-15T09:07:56;4.55;;;1.15;;
47225;SDS011;32965;64.142;-21.912;2022-11-15T09:10:22;3.35;;;0.98;;
47225;SDS011;32965;64.142;-21.912;2022-11-15T09:12:49;4.75;;;0.88;;
47225;SDS011;32965;64.142;-21.912;2022-11-15T09:15:15;4.18;;;1.05;;
47225;SDS011;32965;64.142;-21.912;2022-11-15T09:17:42;4.25;;;1.10;;
47225;SDS011;32965;64.142;-21.912;2022-11-15T09:20:08;4.32;;;0.65;;
47225;SDS011;32965;64.142;-21.912;2022-11-15T09:22:34;6.45;;;1.10;;
47225;SDS011;32965;64.142;-21.912;2022-11-15T09:25:01;4.53;;;1.05;;
47225;SDS011;32965;64.142;-21.912;2022-11-15T09:27:31;3.20;;;1.05;;
47225;SDS011;32965;64.142;-21.912;2022-11-15T09:29:56;3.72;;;1.08;;
47225;SDS011;32965;64.142;-21.912;2022-11-15T09:32:22;7.53;;;1.05;;
47225;SDS011;32965;64.142;-21.912;2022-11-15T09:34:49;3.05;;;0.95;;
47225;SDS011;32965;64.142;-21.912;2022-11-15T09:37:15;2.05;;;0.95;;
47225;SDS011;32965;64.142;-21.912;2022-11-15T09:39:41;4.75;;;1.60;;
47225;SDS011;32965;64.142;-21.912;2022-11-15T09:42:31;21.80;;;3.65;;
47225;SDS011;32965;64.142;-21.912;2022-11-15T09:50:22;33.35;;;6.82;;
47225;SDS011;32965;64.142;-21.912;2022-11-15T09:53:04;32.42;;;5.55;;
47225;SDS011;32965;64.142;-21.912;2022-11-15T09:55:39;27.60;;;5.13;;
47225;SDS011;32965;64.142;-21.912;2022-11-15T10:00:56;10.00;;;2.72;;
47225;SDS011;32965;64.142;-21.912;2022-11-15T10:03:29;10.07;;;2.42;;
47225;SDS011;32965;64.142;-21.912;2022-11-15T10:05:59;11.43;;;2.03;;
47225;SDS011;32965;64.142;-21.912;2022-11-15T10:11:16;10.25;;;2.28;;
47225;SDS011;32965;64.142;-21.912;2022-11-15T10:13:48;8.45;;;1.52;;
47225;SDS011;32965;64.142;-21.912;2022-11-15T10:19:23;5.50;;;1.60;;
47225;SDS011;32965;64.142;-21.912;2022-11-15T10:28:31;6.72;;;1.52;;
47225;SDS011;32965;64.142;-21.912;2022-11-15T10:30:41;1.48;;;0.90;;
47225;SDS011;32965;64.142;-21.912;2022-11-15T10:33:14;5.20;;;1.08;;
47225;SDS011;32965;64.142;-21.912;2022-11-15T10:35:49;4.75;;;1.17;;
47225;SDS011;32965;64.142;-21.912;2022-11-15T10:41:27;3.03;;;0.98;;
47225;SDS011;32965;64.142;-21.912;2022-11-15T10:56:59;3.00;;;1.27;;
47225;SDS011;32965;64.142;-21.912;2022-11-15T10:59:30;1.95;;;0.80;;
47225;SDS011;32965;64.142;-21.912;2022-11-15T11:01:58;2.55;;;0.70;;
47225;SDS011;32965;64.142;-21.912;2022-11-15T11:04:25;2.75;;;0.60;;
47225;SDS011;32965;64.142;-21.912;2022-11-15T11:06:52;2.03;;;0.70;;
47225;SDS011;32965;64.142;-21.912;2022-11-15T11:09:27;2.70;;;1.15;;
47225;SDS011;32965;64.142;-21.912;2022-11-15T11:12:01;3.22;;;0.52;;
47225;SDS011;32965;64.142;-21.912;2022-11-15T11:14:29;3.47;;;0.60;;
47225;SDS011;32965;64.142;-21.912;2022-11-15T11:33:32;1.00;;;0.20;;
47225;SDS011;32965;64.142;-21.912;2022-11-15T11:36:13;3.20;;;0.40;;
47225;SDS011;32965;64.142;-21.912;2022-11-15T11:38:56;0.57;;;0.30;;
47225;SDS011;32965;64.142;-21.912;2022-11-15T11:41:55;1.00;;;0.45;;
47225;SDS011;32965;64.142;-21.912;2022-11-15T11:44:24;1.05;;;0.40;;
47225;SDS011;32965;64.142;-21.912;2022-11-15T11:47:00;1.35;;;0.57;;
47225;SDS011;32965;64.142;-21.912;2022-11-15T11:49:36;1.83;;;0.50;;
47225;SDS011;32965;64.142;-21.912;2022-11-15T11:52:04;4.05;;;0.50;;
47225;SDS011;32965;64.142;-21.912;2022-11-15T11:54:46;2.00;;;0.30;;
47225;SDS011;32965;64.142;-21.912;2022-11-15T11:57:29;1.98;;;0.20;;
47225;SDS011;32965;64.142;-21.912;2022-11-15T12:02:34;2.85;;;0.57;;
47225;SDS011;32965;64.142;-21.912;2022-11-15T12:07:53;0.57;;;0.05;;
47225;SDS011;32965;64.142;-21.912;2022-11-15T12:10:28;0.88;;;0.20;;
47225;SDS011;32965;64.142;-21.912;2022-11-15T12:13:00;0.95;;;0.20;;
47225;SDS011;32965;64.142;-21.912;2022-11-15T12:15:32;1.80;;;0.20;;
47225;SDS011;32965;64.142;-21.912;2022-11-15T12:18:08;1.98;;;0.30;;
47225;SDS011;32965;64.142;-21.912;2022-11-15T12:20:40;0.85;;;0.17;;
47225;SDS011;32965;64.142;-21.912;2022-11-15T12:23:20;0.73;;;0.22;;
47225;SDS011;32965;64.142;-21.912;2022-11-15T12:28:52;0.82;;;0.20;;
47225;SDS011;32965;64.142;-21.912;2022-11-15T12:31:24;0.82;;;0.22;;
47225;SDS011;32965;64.142;-21.912;2022-11-15T12:34:01;0.32;;;0.15;;
47225;SDS011;32965;64.142;-21.912;2022-11-15T12:41:35;0.32;;;0.10;;
47225;SDS011;32965;64.142;-21.912;2022-11-15T12:44:02;0.70;;;0.10;;
47225;SDS011;32965;64.142;-21.912;2022-11-15T13:05:55;1.13;;;0.15;;
47225;SDS011;32965;64.142;-21.912;2022-11-15T13:17:48;0.30;;;0.10;;
47225;SDS011;32965;64.142;-21.912;2022-11-15T13:22:42;2.30;;;0.35;;
47225;SDS011;32965;64.142;-21.912;2022-11-15T13:28:00;1.75;;;0.40;;
47225;SDS011;32965;64.142;-21.912;2022-11-15T13:30:34;2.22;;;0.20;;
47225;SDS011;32965;64.142;-21.912;2022-11-15T13:33:05;1.60;;;0.30;;
47225;SDS011;32965;64.142;-21.912;2022-11-15T13:35:36;1.65;;;0.43;;
47225;SDS011;32965;64.142;-21.912;2022-11-15T13:38:05;0.93;;;0.32;;
47225;SDS011;32965;64.142;-21.912;2022-11-15T13:40:35;1.30;;;0.47;;
47225;SDS011;32965;64.142;-21.912;2022-11-15T13:43:17;2.30;;;0.70;;
47225;SDS011;32965;64.142;-21.912;2022-11-15T13:46:09;0.32;;;0.30;;
47225;SDS011;32965;64.142;-21.912;2022-11-15T13:48:32;1.60;;;0.50;;
47225;SDS011;32965;64.142;-21.912;2022-11-15T13:51:02;2.13;;;0.80;;
47225;SDS011;32965;64.142;-21.912;2022-11-15T13:53:32;2.63;;;0.50;;
47225;SDS011;32965;64.142;-21.912;2022-11-15T13:55:59;1.63;;;0.30;;
47225;SDS011;32965;64.142;-21.912;2022-11-15T13:58:26;0.80;;;0.40;;
47225;SDS011;32965;64.142;-21.912;2022-11-15T14:01:02;1.60;;;0.65;;
47225;SDS011;32965;64.142;-21.912;2022-11-15T14:03:33;1.88;;;0.68;;
47225;SDS011;32965;64.142;-21.912;2022-11-15T14:06:10;3.25;;;0.90;;
47225;SDS011;32965;64.142;-21.912;2022-11-15T14:09:01;3.63;;;0.75;;
47225;SDS011;32965;64.142;-21.912;2022-11-15T14:11:33;1.75;;;0.90;;
47225;SDS011;32965;64.142;-21.912;2022-11-15T14:14:02;1.77;;;0.70;;
47225;SDS011;32965;64.142;-21.912;2022-11-15T14:19:01;4.18;;;0.73;;
47225;SDS011;32965;64.142;-21.912;2022-11-15T14:21:29;2.30;;;0.90;;
47225;SDS011;32965;64.142;-21.912;2022-11-15T14:26:43;1.33;;;0.70;;
47225;SDS011;32965;64.142;-21.912;2022-11-15T14:29:23;4.18;;;1.48;;
47225;SDS011;32965;64.142;-21.912;2022-11-15T14:31:48;4.43;;;1.08;;
47225;SDS011;32965;64.142;-21.912;2022-11-15T14:34:14;3.65;;;1.00;;
47225;SDS011;32965;64.142;-21.912;2022-11-15T14:36:40;2.33;;;0.77;;
47225;SDS011;32965;64.142;-21.912;2022-11-15T14:39:06;2.72;;;0.88;;
47225;SDS011;32965;64.142;-21.912;2022-11-15T14:41:34;3.30;;;1.05;;
47225;SDS011;32965;64.142;-21.912;2022-11-15T14:44:03;3.47;;;1.15;;
47225;SDS011;32965;64.142;-21.912;2022-11-15T14:46:29;9.55;;;1.20;;
47225;SDS011;32965;64.142;-21.912;2022-11-15T14:48:55;2.42;;;1.00;;
47225;SDS011;32965;64.142;-21.912;2022-11-15T14:51:21;2.78;;;1.60;;
47225;SDS011;32965;64.142;-21.912;2022-11-15T14:53:47;4.95;;;1.20;;
47225;SDS011;32965;64.142;-21.912;2022-11-15T14:56:13;3.53;;;1.10;;
47225;SDS011;32965;64.142;-21.912;2022-11-15T14:58:39;2.50;;;0.93;;
47225;SDS011;32965;64.142;-21.912;2022-11-15T15:03:48;3.33;;;1.20;;
47225;SDS011;32965;64.142;-21.912;2022-11-15T15:06:16;3.07;;;1.53;;
47225;SDS011;32965;64.142;-21.912;2022-11-15T15:08:42;1.65;;;1.02;;
47225;SDS011;32965;64.142;-21.912;2022-11-15T15:11:15;5.63;;;1.25;;
47225;SDS011;32965;64.142;-21.912;2022-11-15T15:16:13;3.38;;;0.90;;
47225;SDS011;32965;64.142;-21.912;2022-11-15T15:18:38;3.22;;;1.05;;
47225;SDS011;32965;64.142;-21.912;2022-11-15T15:21:20;2.90;;;0.77;;
47225;SDS011;32965;64.142;-21.912;2022-11-15T15:23:46;2.92;;;0.98;;
47225;SDS011;32965;64.142;-21.912;2022-11-15T15:26:11;1.73;;;0.70;;
47225;SDS011;32965;64.142;-21.912;2022-11-15T15:28:37;0.93;;;0.70;;
47225;SDS011;32965;64.142;-21.912;2022-11-15T15:31:04;5.15;;;0.98;;
47225;SDS011;32965;64.142;-21.912;2022-11-15T15:33:30;2.15;;;0.90;;
47225;SDS011;32965;64.142;-21.912;2022-11-15T15:35:56;1.45;;;0.80;;
47225;SDS011;32965;64.142;-21.912;2022-11-15T15:38:22;3.75;;;1.00;;
47225;SDS011;32965;64.142;-21.912;2022-11-15T15:40:48;2.47;;;1.10;;
47225;SDS011;32965;64.142;-21.912;2022-11-15T15:43:14;2.28;;;1.00;;
47225;SDS011;32965;64.142;-21.912;2022-11-15T15:45:40;4.25;;;1.10;;
47225;SDS011;32965;64.142;-21.912;2022-11-15T15:48:16;1.25;;;0.70;;
47225;SDS011;32965;64.142;-21.912;2022-11-15T15:50:42;3.30;;;1.00;;
47225;SDS011;32965;64.142;-21.912;2022-11-15T15:53:09;2.67;;;0.90;;
47225;SDS011;32965;64.142;-21.912;2022-11-15T15:55:36;3.80;;;0.90;;
47225;SDS011;32965;64.142;-21.912;2022-11-15T15:58:03;1.60;;;0.88;;
47225;SDS011;32965;64.142;-21.912;2022-11-15T16:00:29;2.20;;;0.70;;
47225;SDS011;32965;64.142;-21.912;2022-11-15T16:02:57;2.33;;;0.68;;
47225;SDS011;32965;64.142;-21.912;2022-11-15T16:05:23;2.22;;;0.65;;
47225;SDS011;32965;64.142;-21.912;2022-11-15T16:07:49;3.50;;;0.70;;
47225;SDS011;32965;64.142;-21.912;2022-11-15T16:12:49;2.67;;;0.75;;
47225;SDS011;32965;64.142;-21.912;2022-11-15T16:15:15;2.65;;;0.70;;
47225;SDS011;32965;64.142;-21.912;2022-11-15T16:17:47;2.35;;;0.70;;
47225;SDS011;32965;64.142;-21.912;2022-11-15T16:20:32;1.52;;;0.35;;
47225;SDS011;32965;64.142;-21.912;2022-11-15T16:22:58;1.23;;;0.65;;
47225;SDS011;32965;64.142;-21.912;2022-11-15T16:25:24;1.15;;;0.68;;
47225;SDS011;32965;64.142;-21.912;2022-11-15T16:27:50;2.65;;;0.52;;
47225;SDS011;32965;64.142;-21.912;2022-11-15T16:30:17;0.90;;;0.50;;
47225;SDS011;32965;64.142;-21.912;2022-11-15T16:32:44;0.65;;;0.43;;
47225;SDS011;32965;64.142;-21.912;2022-11-15T16:35:14;2.08;;;0.52;;
47225;SDS011;32965;64.142;-21.912;2022-11-15T16:37:41;5.28;;;0.80;;
47225;SDS011;32965;64.142;-21.912;2022-11-15T16:40:23;1.55;;;0.68;;
47225;SDS011;32965;64.142;-21.912;2022-11-15T16:42:49;0.43;;;0.30;;
47225;SDS011;32965;64.142;-21.912;2022-11-15T16:45:15;0.82;;;0.30;;
47225;SDS011;32965;64.142;-21.912;2022-11-15T16:47:41;1.88;;;0.50;;
47225;SDS011;32965;64.142;-21.912;2022-11-15T16:50:29;1.33;;;0.17;;
47225;SDS011;32965;64.142;-21.912;2022-11-15T16:52:55;0.90;;;0.30;;
47225;SDS011;32965;64.142;-21.912;2022-11-15T16:55:23;2.30;;;0.40;;